Latest Weather Observations for Bundaberg

IDQ60801

Issued at 4:35 pm EST Wednesday 3 September 2014 (issued every 30 minutes, with the page automatically refreshed every 10 minutes)

About weather observations | Map of weather stations | Latest weather observations for QLD | Other Formats
Station Details ID: 039128 Name: BUNDABERG AERO Lat: -24.91 Lon: 152.32 Height: 30.82 m
Data from the previous 72 hours. | See also: Recent months at Bundaberg
Date/Time
EST
Temp
°C
App
Temp
°C
Dew
Point
Rel
Hum
%
Delta-T
°C
Wind Press
QNH
hPa
Press
MSL
hPa
Rain
since 9 am
mm
Dir
 
Spd
km/h
Gust
km/h
Spd
kts
Gust
kts
03/04:30pm 21.7 14.1 -6.0 15 11.0 SW 26 35 14 19 1012.2 1012.1 0.0
03/04:00pm 22.0 14.5 -4.1 17 10.8 W 26 35 14 19 1012.0 1011.9 0.0
03/03:30pm 22.4 16.2 -3.1 18 10.8 SW 20 33 11 18 1012.0 1011.9 0.0
03/03:00pm 22.3 15.3 -3.1 18 10.8 WSW 24 37 13 20 1012.1 1012.0 0.0
03/02:30pm 22.2 15.2 -3.2 18 10.7 WSW 24 35 13 19 1012.1 1012.0 0.0
03/02:00pm 21.5 13.8 -3.1 19 10.4 WSW 28 41 15 22 1012.5 1012.4 0.0
03/01:30pm 21.3 14.1 -1.9 21 10.0 W 26 35 14 19 1012.8 1012.7 0.0
03/01:00pm 21.2 13.6 -2.0 21 10.0 SW 28 37 15 20 1013.2 1013.1 0.0
03/12:30pm 21.2 14.6 -0.1 24 9.5 WSW 24 41 13 22 1013.8 1013.7 0.0
03/12:00pm 20.7 14.0 -1.2 23 9.5 SW 24 35 13 19 1014.1 1014.0 0.0
03/11:30am 20.2 13.8 1.1 28 8.6 WSW 24 35 13 19 1014.7 1014.6 0.0
03/11:00am 19.4 11.3 -0.1 27 8.6 WSW 32 41 17 22 1015.1 1015.0 0.0
03/10:30am 18.6 11.3 -0.2 28 8.2 SW 28 43 15 23 1015.8 1015.7 0.0
03/10:00am 17.9 10.6 0.1 30 7.7 SW 28 41 15 22 1016.3 1016.2 0.0
03/09:30am 17.6 10.4 0.7 32 7.4 SW 28 44 15 24 1016.5 1016.4 0.0
03/09:18am 17.2 10.0 0.8 33 7.2 SW 28 46 15 25 1016.6 1016.5 0.0
03/09:00am 16.7 9.6 1.2 35 6.8 SW 28 39 15 21 1016.5 1016.4 0.2
03/08:30am 16.4 10.2 2.4 39 6.3 SW 24 33 13 18 1016.7 1016.6 0.2
03/08:00am 15.1 9.2 2.0 41 5.8 SW 22 35 12 19 1016.8 1016.7 0.2
03/07:30am 14.4 9.2 2.3 44 5.3 SSW 19 28 10 15 1016.6 1016.5 0.2
03/07:00am 13.4 8.6 2.6 48 4.8 SW 17 22 9 12 1016.3 1016.2 0.2
03/06:30am 12.2 8.5 2.1 50 4.4 WSW 11 15 6 8 1015.9 1015.8 0.2
03/06:00am 12.0 7.8 1.6 49 4.4 SW 13 20 7 11 1015.6 1015.5 0.2
03/05:30am 12.1 8.7 1.7 49 4.4 SW 9 13 5 7 1015.3 1015.2 0.2
03/05:00am 12.9 9.0 1.3 45 4.9 SW 11 19 6 10 1015.0 1014.9 0.2
03/04:30am 13.7 9.8 1.4 43 5.3 SW 11 17 6 9 1014.5 1014.4 0.2
03/04:00am 14.4 8.8 1.3 41 5.7 SW 20 30 11 16 1014.0 1013.9 0.2
03/03:30am 14.5 9.4 0.7 39 5.9 SW 17 24 9 13 1014.1 1014.0 0.2
03/03:00am 14.7 10.1 1.3 40 5.8 SSW 15 20 8 11 1014.1 1014.0 0.2
03/02:30am 15.1 11.2 0.9 38 6.1 SSW 11 19 6 10 1014.2 1014.1 0.2
03/02:00am 15.7 11.0 1.1 37 6.4 SSW 15 20 8 11 1014.3 1014.2 0.2
03/01:30am 16.3 10.6 0.8 35 6.7 SW 20 28 11 15 1014.5 1014.4 0.2
03/01:00am 16.6 12.0 1.5 36 6.7 SW 15 22 8 12 1014.6 1014.5 0.2
03/12:30am 17.2 12.2 1.6 35 7.0 SW 17 28 9 15 1014.7 1014.6 0.2
03/12:00am 17.3 12.5 2.5 37 6.7 SW 17 24 9 13 1014.6 1014.5 0.2
 
Date/Time
EST
Temp
°C
App
Temp
°C
Dew
Point
Rel
Hum
%
Delta-T
°C
Wind Press
QNH
hPa
Press
MSL
hPa
Rain
since 9 am
mm
Dir
 
Spd
km/h
Gust
km/h
Spd
kts
Gust
kts
02/11:30pm 17.2 14.1 3.5 40 6.4 SW 9 17 5 9 1014.5 1014.4 0.2
02/11:00pm 17.6 13.2 4.9 43 6.1 SSW 17 24 9 13 1013.8 1013.7 0.2
02/10:30pm 18.0 14.8 8.3 53 5.0 SW 15 22 8 12 1013.3 1013.2 0.2
02/10:00pm 17.1 16.5 13.4 79 2.1 W 9 11 5 6 1013.0 1012.9 0.2
02/09:30pm 15.4 14.5 13.6 89 1.0 NW 11 13 6 7 1012.9 1012.8 0.2
02/09:00pm 16.0 15.4 13.5 85 1.4 NW 9 13 5 7 1012.9 1012.8 0.2
02/08:30pm 16.6 16.5 13.9 84 1.5 WNW 7 9 4 5 1012.8 1012.7 0.2
02/08:00pm 18.0 18.2 14.7 81 1.9 WNW 7 9 4 5 1012.6 1012.5 0.2
02/07:30pm 19.6 17.1 16.1 80 2.1 WNW 24 33 13 18 1012.4 1012.3 0.2
02/07:00pm 19.5 16.7 16.3 82 1.9 N 26 32 14 17 1011.0 1010.9 0.2
02/06:30pm 19.5 17.2 15.6 78 2.3 N 22 30 12 16 1010.7 1010.6 0.2
02/06:00pm 19.9 16.6 15.1 74 2.8 N 26 32 14 17 1010.4 1010.3 0.2
02/05:30pm 20.6 16.2 14.0 66 3.8 N 30 37 16 20 1010.3 1010.2 0.2
02/05:00pm 21.8 16.6 12.9 57 5.1 N 32 43 17 23 1010.0 1009.9 0.2
02/04:30pm 23.2 16.9 9.6 42 7.4 N 33 44 18 24 1009.9 1009.8 0.2
02/04:00pm 23.6 16.2 9.9 42 7.5 N 39 50 21 27 1009.8 1009.7 0.2
02/03:30pm 24.6 16.9 10.1 40 8.0 N 41 54 22 29 1009.8 1009.7 0.2
02/03:00pm 24.5 17.0 9.6 39 8.2 N 39 52 21 28 1009.8 1009.7 0.2
02/02:30pm 25.2 18.4 10.6 40 8.2 N 37 50 20 27 1010.2 1010.1 0.2
02/02:00pm 25.7 19.1 11.5 41 8.1 N 37 44 20 24 1010.8 1010.7 0.2
02/01:30pm 25.4 19.8 13.3 47 7.1 N 35 44 19 24 1011.3 1011.2 0.2
02/01:00pm 25.2 20.5 14.3 50 6.5 N 32 43 17 23 1011.8 1011.7 0.2
02/12:30pm 25.0 20.0 13.9 50 6.5 N 33 43 18 23 1012.6 1012.5 0.2
02/12:00pm 24.8 19.7 14.9 54 5.9 N 35 43 19 23 1013.1 1013.0 0.2
02/11:30am 24.6 20.0 15.0 55 5.8 N 33 43 18 23 1013.8 1013.7 0.2
02/11:00am 24.6 21.1 15.5 57 5.5 N 28 39 15 21 1014.6 1014.5 0.2
02/10:30am 23.4 19.7 14.9 59 5.1 NNW 28 35 15 19 1015.1 1015.0 0.0
02/10:00am 23.5 19.7 15.8 62 4.7 N 30 35 16 19 1015.6 1015.5 0.0
02/09:30am 22.0 17.9 14.9 64 4.2 NNW 30 37 16 20 1016.0 1015.9 0.0
02/09:00am 20.4 16.2 15.8 75 2.7 NNW 32 39 17 21 1016.1 1016.0 0.0
02/08:30am 19.6 18.0 17.4 87 1.3 NNW 22 28 12 15 1016.5 1016.4 0.0
02/08:00am 18.5 17.3 17.0 91 0.9 NNW 19 22 10 12 1016.7 1016.6 0.0
02/07:30am 17.8 16.4 16.5 92 0.8 NNW 19 26 10 14 1016.6 1016.5 0.0
02/07:00am 16.3 15.5 16.0 98 0.2 NNW 15 20 8 11 1016.4 1016.3 0.0
02/06:30am 14.8 14.2 14.6 99 0.1 NW 11 13 6 7 1016.4 1016.3 0.0
02/06:26am 14.3 13.1 14.1 99 0.1 NNW 13 13 7 7 1016.4 1016.3 0.0
02/06:00am 12.8 11.5 12.5 98 0.2 NNW 11 13 6 7 1016.2 1016.1 0.0
02/05:39am 13.4 12.3 13.1 98 0.2 NNW 11 13 6 7 1016.1 1016.0 0.0
02/05:30am 13.5 12.1 13.3 99 0.1 NNW 13 15 7 8 1016.1 1016.0 0.0
02/05:18am 13.8 12.5 13.6 99 0.1 NNW 13 15 7 8 1016.0 1015.9 0.0
02/05:00am 13.4 11.9 13.2 99 0.1 NNW 13 15 7 8 1016.0 1015.9 0.0
02/04:30am 13.4 12.7 13.1 98 0.2 NW 9 11 5 6 1016.1 1016.0 0.0
02/04:00am 13.5 12.8 13.2 98 0.2 NW 9 11 5 6 1016.2 1016.1 0.0
02/03:30am 14.0 13.1 13.8 99 0.1 NW 11 13 6 7 1016.1 1016.0 0.0
02/03:00am 14.2 13.4 13.9 98 0.2 NW 11 13 6 7 1016.3 1016.2 0.0
02/02:48am 14.3 13.5 14.0 98 0.2 NW 11 13 6 7 1016.3 1016.2 0.0
02/02:30am 14.4 13.6 14.1 98 0.2 NW 11 13 6 7 1016.3 1016.2 0.0
02/02:27am 14.4 13.6 14.1 98 0.2 NW 11 13 6 7 1016.3 1016.2 0.0
02/02:00am 14.7 14.0 14.4 98 0.2 NW 11 13 6 7 1016.5 1016.4 0.0
02/01:53am 14.7 14.0 14.4 98 0.2 NW 11 13 6 7 1016.5 1016.4 0.0
02/01:30am 14.6 14.8 14.3 98 0.2 NW 6 7 3 4 1016.6 1016.5 0.0
02/01:29am 14.6 14.8 14.3 98 0.2 NW 6 7 3 4 1016.6 1016.5 0.0
02/01:28am 14.6 14.8 14.3 98 0.2 NW 6 7 3 4 1016.6 1016.5 0.0
02/01:21am 14.7 14.8 14.4 98 0.2 NW 7 7 4 4 1016.7 1016.6 0.0
02/01:00am 14.5 14.5 14.2 98 0.2 NW 7 9 4 5 1017.0 1016.9 0.0
02/12:30am 14.4 14.4 14.1 98 0.2 NW 7 9 4 5 1017.2 1017.1 0.0
02/12:00am 14.5 14.1 14.0 97 0.3 NW 9 9 5 5 1017.4 1017.3 0.0
 
Date/Time
EST
Temp
°C
App
Temp
°C
Dew
Point
Rel
Hum
%
Delta-T
°C
Wind Press
QNH
hPa
Press
MSL
hPa
Rain
since 9 am
mm
Dir
 
Spd
km/h
Gust
km/h
Spd
kts
Gust
kts
01/11:41pm 14.6 13.8 14.1 97 0.3 NNW 11 11 6 6 1017.5 1017.4 0.0
01/11:30pm 15.1 14.9 14.6 97 0.3 NW 9 11 5 6 1017.4 1017.3 0.0
01/11:17pm 15.3 14.8 14.8 97 0.3 NW 11 13 6 7 1017.5 1017.4 0.0
01/11:00pm 15.2 14.2 14.7 97 0.3 NNW 13 15 7 8 1017.6 1017.5 0.0
01/10:30pm 14.7 13.9 14.1 96 0.3 NNW 11 13 6 7 1017.8 1017.7 0.0
01/10:10pm 14.9 14.2 14.4 97 0.3 NNW 11 13 6 7 1017.8 1017.7 0.0
01/10:00pm 14.7 13.9 14.1 96 0.3 NNW 11 13 6 7 1017.9 1017.8 0.0
01/09:45pm 14.4 13.8 13.4 94 0.6 NW 9 11 5 6 1018.1 1018.0 0.0
01/09:30pm 14.7 14.2 13.7 94 0.6 NNW 9 11 5 6 1018.0 1017.9 0.0
01/09:00pm 14.9 14.2 13.3 90 0.9 N 9 11 5 6 1017.9 1017.8 0.0
01/08:30pm 17.6 17.4 15.8 89 1.1 N 11 13 6 7 1018.2 1018.1 0.0
01/08:00pm 17.9 17.4 15.9 88 1.2 N 13 17 7 9 1018.0 1017.9 0.0
01/07:30pm 17.9 17.4 15.9 88 1.2 N 13 17 7 9 1017.8 1017.7 0.0
01/07:00pm 18.2 17.7 15.8 86 1.4 N 13 17 7 9 1018.0 1017.9 0.0
01/06:30pm 18.5 17.6 15.9 85 1.5 N 15 20 8 11 1017.5 1017.4 0.0
01/06:00pm 19.0 17.7 15.7 81 2.0 N 17 22 9 12 1017.2 1017.1 0.0
01/05:30pm 19.6 17.9 14.8 74 2.8 N 17 22 9 12 1016.8 1016.7 0.0
01/05:00pm 20.9 18.1 13.1 61 4.4 N 20 26 11 14 1016.7 1016.6 0.0
01/04:30pm 22.2 18.6 11.9 52 5.8 N 22 30 12 16 1016.2 1016.1 0.0
01/04:00pm 23.0 19.0 10.4 45 6.9 N 22 28 12 15 1016.3 1016.2 0.0
01/03:30pm 23.6 19.5 11.3 46 6.9 N 24 30 13 16 1016.2 1016.1 0.0
01/03:00pm 23.7 19.5 11.1 45 7.0 N 24 30 13 16 1016.1 1016.0 0.0
01/02:30pm 24.3 19.7 9.8 40 7.9 NNE 24 30 13 16 1016.1 1016.0 0.0
01/02:00pm 24.3 20.2 10.2 41 7.8 N 22 30 12 16 1016.7 1016.6 0.0
01/01:30pm 24.2 20.3 9.4 39 8.0 NNE 20 30 11 16 1017.1 1017.0 0.0
01/01:00pm 25.6 22.2 11.4 41 8.0 N 20 28 11 15 1017.8 1017.7 0.0
01/12:30pm 24.8 22.2 12.1 45 7.3 N 17 24 9 13 1018.0 1017.9 0.0
01/12:00pm 24.6 22.4 13.2 49 6.6 N 17 24 9 13 1018.0 1017.9 0.0
01/11:30am 23.8 21.8 11.5 46 6.9 N 13 20 7 11 1018.4 1018.3 0.0
01/11:00am 22.8 22.1 13.3 55 5.5 NNE 9 19 5 10 1019.0 1018.9 0.0
01/10:30am 22.7 21.9 14.0 58 5.1 NW 11 17 6 9 1019.6 1019.5 0.0
01/10:00am 21.1 20.5 13.5 62 4.4 NW 9 15 5 8 1020.4 1020.3 0.0
01/09:30am 19.3 19.5 14.1 72 3.0 W 6 11 3 6 1020.5 1020.5 0.0
01/09:00am 18.0 18.3 14.9 82 1.8 S 7 9 4 5 1020.4 1020.4 0.0
01/08:33am 15.5 15.5 14.2 92 0.7 SE 7 9 4 5 1020.4 1020.4 0.0
01/08:30am 15.8 16.0 14.8 94 0.6 SE 7 11 4 6 1020.4 1020.4 0.0
01/08:16am 14.3 14.3 13.5 95 0.4 SSE 6 11 3 6 1020.3 1020.3 0.0
01/08:09am 13.8 13.0 13.0 95 0.4 SE 9 13 5 7 1020.2 1020.2 0.0
01/08:06am 13.9 13.2 13.1 95 0.4 SE 9 13 5 7 1020.2 1020.2 0.0
01/08:00am 13.7 13.0 13.1 96 0.3 SE 9 11 5 6 1020.1 1020.1 0.0
01/07:48am 13.2 12.6 12.4 95 0.4 SSE 7 11 4 6 1019.9 1019.9 0.0
01/07:35am 12.6 11.5 11.8 95 0.4 SSE 9 17 5 9 1019.7 1019.7 0.0
01/07:32am 12.5 11.3 11.7 95 0.4 SSE 9 17 5 9 1019.7 1019.7 0.0
01/07:30am 12.9 12.3 12.3 96 0.3 SSE 7 15 4 8 1019.6 1019.6 0.0
01/07:15am 12.9 13.0 12.6 98 0.2 SW 4 7 2 4 1019.2 1019.2 0.0
01/07:00am 11.4 10.6 11.1 98 0.2 S 6 9 3 5 1019.1 1019.1 0.0
01/06:53am 11.1 10.2 10.8 98 0.2 S 6 11 3 6 1019.1 1019.1 0.0
01/06:52am 11.0 10.5 10.7 98 0.2 S 4 11 2 6 1019.0 1018.9 0.0
01/06:30am 10.2 9.4 9.7 97 0.3 SE 4 9 2 5 1018.8 1018.7 0.0
01/06:00am 10.0 9.9 9.5 97 0.2 CALM 0 2 0 1 1018.8 1018.7 0.0
01/05:51am 10.2 9.8 9.7 97 0.3 SSW 2 6 1 3 1018.8 1018.7 0.0
01/05:39am 10.5 9.4 10.0 97 0.3 S 6 11 3 6 1018.7 1018.6 0.0
01/05:30am 10.6 9.4 10.3 98 0.2 S 7 9 4 5 1018.5 1018.4 0.0
01/05:00am 11.2 10.4 10.9 98 0.2 S 6 9 3 5 1018.4 1018.3 0.0
01/04:36am 11.0 9.5 10.5 97 0.3 S 9 17 5 9 1018.2 1018.1 0.0
01/04:33am 10.9 9.7 10.4 97 0.3 S 7 17 4 9 1018.1 1018.0 0.0
01/04:30am 11.1 10.2 10.6 97 0.3 S 6 7 3 4 1018.0 1017.9 0.0
01/04:23am 11.0 10.4 10.5 97 0.3 S 4 7 2 4 1018.1 1018.0 0.0
01/04:19am 11.0 10.8 10.4 96 0.3 S 2 7 1 4 1018.1 1018.0 0.0
01/04:00am 11.2 11.4 10.7 97 0.3 CALM 0 0 0 0 1018.1 1018.0 0.0
01/03:49am 11.4 11.7 10.9 97 0.3 CALM 0 0 0 0 1018.0 1017.9 0.0
01/03:48am 11.5 11.8 11.0 97 0.3 CALM 0 0 0 0 1018.0 1017.9 0.0
01/03:30am 11.3 10.8 10.8 97 0.3 SSE 4 7 2 4 1018.1 1018.0 0.0
01/03:00am 11.9 12.0 11.4 97 0.3 S 2 7 1 4 1018.0 1017.9 0.0
01/02:30am 12.1 11.3 11.6 97 0.3 S 7 9 4 5 1018.1 1018.0 0.0
01/02:29am 12.1 11.3 11.6 97 0.3 S 7 9 4 5 1018.1 1018.0 0.0
01/02:06am 12.3 11.8 12.0 98 0.2 S 6 9 3 5 1018.3 1018.2 0.0
01/02:00am 12.5 12.0 12.2 98 0.2 S 6 11 3 6 1018.3 1018.2 0.0
01/01:30am 11.0 11.1 10.1 94 0.5 CALM 0 0 0 0 1018.4 1018.3 0.0
01/01:00am 11.8 11.4 11.0 95 0.4 SSE 4 9 2 5 1018.5 1018.4 0.0
01/12:56am 11.9 11.5 11.1 95 0.4 SSE 4 9 2 5 1018.6 1018.5 0.0
01/12:54am 11.9 11.5 11.1 95 0.4 SSE 4 9 2 5 1018.6 1018.5 0.0
01/12:52am 12.0 12.0 11.2 95 0.4 S 2 9 1 5 1018.6 1018.5 0.0
01/12:30am 11.8 12.0 10.7 93 0.6 CALM 0 0 0 0 1018.6 1018.5 0.0
01/12:00am 12.0 12.3 10.9 93 0.6 CALM 0 0 0 0 1018.8 1018.7 0.0
 
Date/Time
EST
Temp
°C
App
Temp
°C
Dew
Point
Rel
Hum
%
Delta-T
°C
Wind Press
QNH
hPa
Press
MSL
hPa
Rain
since 9 am
mm
Dir
 
Spd
km/h
Gust
km/h
Spd
kts
Gust
kts
31/11:30pm 12.2 12.5 10.8 91 0.7 CALM 0 0 0 0 1018.9 1018.8 0.0
31/11:00pm 13.0 12.5 11.9 93 0.6 SSW 6 11 3 6 1019.0 1018.9 0.0
31/10:30pm 13.4 12.5 12.6 95 0.4 S 9 11 5 6 1019.1 1019.1 0.0
31/10:00pm 13.6 14.3 12.3 92 0.7 CALM 0 0 0 0 1018.8 1018.7 0.0
31/09:30pm 14.2 14.4 12.9 92 0.7 WNW 4 6 2 3 1018.6 1018.5 0.0
31/09:00pm 13.5 12.3 11.7 89 1.0 W 9 11 5 6 1018.4 1018.3 0.0
31/08:30pm 14.8 14.5 13.2 90 0.9 WNW 7 9 4 5 1018.5 1018.4 0.0
31/08:00pm 14.6 13.8 13.0 90 0.9 NW 9 9 5 5 1018.2 1018.1 0.0
31/07:30pm 15.8 16.9 13.5 86 1.3 CALM 0 0 0 0 1018.1 1018.0 0.0
31/07:00pm 16.6 16.3 12.8 78 2.1 NNE 6 7 3 4 1017.6 1017.5 0.0
31/06:30pm 17.7 17.5 13.6 77 2.3 NNE 7 9 4 5 1017.2 1017.1 0.0
31/06:00pm 18.5 16.9 12.9 70 3.1 NNE 13 15 7 8 1016.7 1016.6 0.0
31/05:30pm 19.4 17.5 11.7 61 4.3 NE 13 17 7 9 1016.5 1016.4 0.0
31/05:00pm 20.7 17.9 11.3 55 5.2 NNE 17 20 9 11 1016.2 1016.1 0.0

Other Formats:

Comma delimited format used in spreadsheet applications
http://www.bom.gov.au/fwo/IDQ60801/IDQ60801.94387.axf

JavaScript Object Notation format (JSON) in row-major order
http://www.bom.gov.au/fwo/IDQ60801/IDQ60801.94387.json